createdAt,value
2023-02-02T00:00:19.214Z,132.44
2023-02-02T00:01:18.263Z,41.82
2023-02-02T00:02:18.176Z,0.00
2023-02-02T00:03:18.396Z,0.00
2023-02-02T00:04:18.206Z,59.67
2023-02-02T00:05:18.215Z,126.08
2023-02-02T00:06:18.283Z,85.57
2023-02-02T00:07:18.380Z,268.41
2023-02-02T00:08:18.358Z,353.25
2023-02-02T00:24:50.616Z,25.00
2023-02-02T00:25:49.663Z,25.00
2023-02-02T01:27:29.453Z,191.07
2023-02-02T01:28:29.537Z,140.77
2023-02-02T01:29:29.403Z,127.31
2023-02-02T01:30:29.395Z,128.53
2023-02-02T01:32:29.502Z,90.65
2023-02-02T01:33:29.579Z,172.57
2023-02-02T02:27:46.843Z,25.00
2023-02-02T02:56:05.535Z,152.95
2023-02-02T02:57:05.569Z,116.47
2023-02-02T02:58:05.571Z,72.79
2023-02-02T02:59:05.537Z,186.90
2023-02-02T03:01:26.241Z,25.00
2023-02-02T03:02:25.539Z,25.00
2023-02-02T03:03:25.635Z,25.00
2023-02-02T03:04:26.225Z,25.00
2023-02-02T03:05:25.787Z,25.00
2023-02-02T03:06:25.441Z,102.49
2023-02-02T03:07:25.379Z,93.16
2023-02-02T03:08:25.635Z,123.54
2023-02-02T03:09:25.439Z,20.12
2023-02-02T03:10:25.341Z,96.57
2023-02-02T03:11:25.361Z,162.62
2023-02-02T03:12:25.371Z,265.82
2023-02-02T03:13:25.388Z,250.00
2023-02-02T03:14:25.374Z,286.84
2023-02-02T03:15:25.585Z,314.26
2023-02-02T03:16:25.633Z,247.15
2023-02-02T03:17:25.333Z,268.26
2023-02-02T03:18:25.360Z,217.15
2023-02-02T03:19:25.316Z,204.85
2023-02-02T03:20:25.294Z,236.96
2023-02-02T03:21:25.315Z,282.87
2023-02-02T03:22:25.426Z,223.15
2023-02-02T03:23:25.295Z,151.19
2023-02-02T03:24:25.250Z,223.06
2023-02-02T03:25:25.618Z,214.29
2023-02-02T03:26:25.314Z,222.42
2023-02-02T03:27:25.291Z,168.63
2023-02-02T03:28:25.304Z,125.15
2023-02-02T03:29:25.301Z,207.59
2023-02-02T03:30:25.299Z,149.79
2023-02-02T03:31:25.244Z,221.82
2023-02-02T03:32:25.189Z,193.40
2023-02-02T03:33:25.238Z,199.02
2023-02-02T03:34:25.222Z,74.18
2023-02-02T03:35:25.656Z,64.64
2023-02-02T03:36:25.277Z,51.96
2023-02-02T03:37:25.233Z,60.68
2023-02-02T03:38:25.305Z,71.28
2023-02-02T03:39:25.319Z,102.14
2023-02-02T03:40:25.313Z,34.10
2023-02-02T03:41:25.355Z,80.06
2023-02-02T03:42:25.372Z,47.63
2023-02-02T03:43:25.491Z,33.13
2023-02-02T03:44:25.405Z,42.88
2023-02-02T03:45:25.815Z,69.07
2023-02-02T03:46:25.975Z,118.77
2023-02-02T03:47:25.514Z,97.09
2023-02-02T03:48:25.518Z,144.34
2023-02-02T03:49:25.513Z,229.20
2023-02-02T03:50:25.528Z,119.24
2023-02-02T03:51:25.529Z,113.19
2023-02-02T03:52:25.756Z,180.91
2023-02-02T03:53:25.553Z,202.66
2023-02-02T03:54:25.550Z,103.13
2023-02-02T03:55:26.711Z,109.93
2023-02-02T03:56:25.591Z,60.32
2023-02-02T03:57:25.677Z,163.79
2023-02-02T03:58:25.670Z,201.50
2023-02-02T03:59:25.638Z,183.82
2023-02-02T04:01:45.845Z,25.00
2023-02-02T04:02:45.372Z,25.00
2023-02-02T04:03:45.401Z,25.00
2023-02-02T04:04:45.265Z,25.00
2023-02-02T04:05:45.251Z,25.00
2023-02-02T04:06:45.308Z,130.36
2023-02-02T04:07:45.253Z,85.40
2023-02-02T04:08:45.278Z,0.00
2023-02-02T04:11:18.428Z,25.00
2023-02-02T04:12:18.433Z,25.00
2023-02-02T04:13:18.088Z,25.00
2023-02-02T04:14:18.116Z,25.00
2023-02-02T04:15:18.090Z,25.00
2023-02-02T04:16:18.102Z,25.00
2023-02-02T04:17:18.030Z,0.00
2023-02-02T04:18:18.041Z,1.86
2023-02-02T04:19:18.056Z,90.24
2023-02-02T04:20:18.029Z,17.49
2023-02-02T04:25:48.835Z,25.00
2023-02-02T04:26:48.530Z,25.00
2023-02-02T04:27:48.519Z,25.00
2023-02-02T04:28:48.619Z,25.00
2023-02-02T04:29:48.596Z,25.00
2023-02-02T04:30:48.399Z,25.00
2023-02-02T04:31:48.443Z,19.96
2023-02-02T04:32:49.272Z,0.00
2023-02-02T05:16:29.349Z,25.00
2023-02-02T05:17:28.685Z,25.00
2023-02-02T05:18:28.791Z,25.00
2023-02-02T05:19:29.034Z,25.00
2023-02-02T05:20:28.813Z,25.00
2023-02-02T05:21:28.719Z,0.00
2023-02-02T05:22:28.695Z,0.00
2023-02-02T05:23:28.735Z,3.84
2023-02-02T05:24:28.754Z,43.65
2023-02-02T05:25:28.654Z,73.05
2023-02-02T05:26:28.776Z,207.13
2023-02-02T05:27:28.670Z,245.28
2023-02-02T05:28:28.661Z,108.31
2023-02-02T05:29:28.663Z,104.12
2023-02-02T05:30:28.654Z,103.14
2023-02-02T05:31:28.703Z,104.36
2023-02-02T05:32:28.683Z,71.28
2023-02-02T05:33:28.739Z,102.23
2023-02-02T05:34:28.775Z,88.77
2023-02-02T05:36:55.402Z,25.00
2023-02-02T05:37:54.831Z,25.00
2023-02-02T05:38:54.911Z,25.00
2023-02-02T05:39:54.808Z,25.00
2023-02-02T05:40:54.811Z,25.00
2023-02-02T05:41:54.878Z,25.00
2023-02-02T05:42:54.797Z,0.00
2023-02-02T05:43:54.809Z,0.00
2023-02-02T05:44:54.787Z,0.00
2023-02-02T05:45:54.825Z,25.00
2023-02-02T05:46:54.740Z,16.29
2023-02-02T05:47:54.769Z,13.68
2023-02-02T05:48:54.814Z,28.81
2023-02-02T05:49:54.736Z,116.44
2023-02-02T05:50:54.770Z,221.84
2023-02-02T05:51:54.738Z,160.27
2023-02-02T05:52:54.873Z,51.43
2023-02-02T05:53:54.847Z,0.00
2023-02-02T05:54:54.848Z,0.00
2023-02-02T05:55:55.027Z,0.00
2023-02-02T06:11:14.601Z,204.49
2023-02-02T06:12:14.573Z,241.67
2023-02-02T06:13:14.578Z,258.55
2023-02-02T06:14:14.620Z,204.41
2023-02-02T06:15:14.684Z,123.74
2023-02-02T06:16:14.675Z,120.90
2023-02-02T06:17:14.539Z,147.90
2023-02-02T06:18:14.621Z,35.55
2023-02-02T06:19:14.550Z,80.58
2023-02-02T06:20:14.555Z,46.68
2023-02-02T06:21:14.513Z,50.55
2023-02-02T06:22:14.556Z,53.95
2023-02-02T06:33:50.579Z,0.00
2023-02-02T06:34:54.894Z,25.00
2023-02-02T06:35:55.564Z,25.00
2023-02-02T06:36:55.668Z,25.00
2023-02-02T06:37:55.067Z,25.00
2023-02-02T06:38:54.850Z,25.00
2023-02-02T06:39:54.617Z,244.99
2023-02-02T06:40:54.451Z,9.86
2023-02-02T06:43:15.999Z,25.00
2023-02-02T06:46:54.220Z,25.00
2023-02-02T06:47:54.289Z,25.00
2023-02-02T06:48:54.787Z,25.00
2023-02-02T06:49:54.466Z,25.00
2023-02-02T06:50:54.089Z,25.00
2023-02-02T06:51:54.168Z,0.00
2023-02-02T06:52:54.073Z,0.00
2023-02-02T06:53:54.401Z,0.00
2023-02-02T06:54:54.182Z,0.00
2023-02-02T06:55:54.067Z,0.00
2023-02-02T06:56:54.001Z,0.00
2023-02-02T06:57:53.991Z,0.00
2023-02-02T06:58:54.015Z,0.00
2023-02-02T06:59:54.219Z,110.13
2023-02-02T07:00:54.008Z,206.71
2023-02-02T07:01:54.210Z,166.37
2023-02-02T07:02:53.993Z,142.82
2023-02-02T07:03:54.019Z,67.18
2023-02-02T07:04:54.054Z,25.00
2023-02-02T07:05:53.924Z,66.17
2023-02-02T07:06:53.988Z,47.79
2023-02-02T07:07:53.939Z,94.13
2023-02-02T07:09:02.659Z,64.97
2023-02-02T07:09:58.284Z,67.57
2023-02-02T07:11:13.313Z,24.28
2023-02-02T07:12:09.454Z,0.00
2023-02-02T07:12:54.388Z,0.00
2023-02-02T07:13:55.885Z,0.00
2023-02-02T07:14:53.946Z,0.00
2023-02-02T07:15:54.887Z,0.00
2023-02-02T07:16:55.012Z,0.00
2023-02-02T07:17:55.079Z,9.54
2023-02-02T07:18:53.878Z,22.48
2023-02-02T07:19:53.945Z,16.24
2023-02-02T07:20:53.969Z,51.00
2023-02-02T07:21:53.947Z,64.41
2023-02-02T07:22:53.989Z,33.99
2023-02-02T07:29:53.504Z,25.00
2023-02-02T07:30:53.865Z,25.00
2023-02-02T07:31:53.326Z,25.00
2023-02-02T07:32:53.300Z,25.00
2023-02-02T07:33:53.712Z,25.00
2023-02-02T07:34:53.213Z,0.00
2023-02-02T07:35:53.430Z,0.00
2023-02-02T07:36:53.377Z,0.00
2023-02-02T07:37:53.177Z,29.71
2023-02-02T07:38:53.221Z,23.59
2023-02-02T07:40:08.075Z,44.26
2023-02-02T07:40:53.155Z,45.45
2023-02-02T07:41:53.338Z,0.00
2023-02-02T07:42:53.840Z,2.03
2023-02-02T07:43:53.477Z,46.11
2023-02-02T07:44:54.398Z,0.00
2023-02-02T07:45:54.745Z,0.00
2023-02-02T07:46:53.222Z,0.00
2023-02-02T07:47:53.133Z,24.14
2023-02-02T07:48:53.136Z,100.47
2023-02-02T07:49:53.386Z,144.97
2023-02-02T07:50:53.113Z,103.43
2023-02-02T07:51:53.937Z,95.23
2023-02-02T07:54:57.777Z,199.28
2023-02-02T07:55:54.078Z,200.20
2023-02-02T07:56:53.069Z,148.44
2023-02-02T07:57:53.054Z,203.49
2023-02-02T07:58:53.307Z,238.63
2023-02-02T07:59:53.194Z,324.69
2023-02-02T08:00:53.167Z,257.66
2023-02-02T08:01:53.094Z,245.14
2023-02-02T08:02:53.234Z,208.03
2023-02-02T08:03:53.525Z,188.71
2023-02-02T08:04:53.198Z,197.70
2023-02-02T08:05:53.050Z,218.62
2023-02-02T08:06:53.035Z,227.81
2023-02-02T08:07:53.002Z,239.73
2023-02-02T08:08:53.055Z,247.32
2023-02-02T08:09:53.006Z,237.49
2023-02-02T08:10:53.022Z,212.32
2023-02-02T08:11:53.389Z,221.63
2023-02-02T08:12:53.092Z,176.91
2023-02-02T08:13:53.439Z,154.85
2023-02-02T08:14:53.101Z,172.94
2023-02-02T08:15:53.407Z,184.72
2023-02-02T08:16:53.193Z,145.79
2023-02-02T08:17:53.243Z,132.54
2023-02-02T08:25:13.442Z,28.05
2023-02-02T08:26:13.335Z,64.74
2023-02-02T08:27:13.338Z,80.90
2023-02-02T08:30:13.717Z,48.29
2023-02-02T08:32:13.486Z,23.37
2023-02-02T08:33:13.692Z,25.00
2023-02-02T08:34:13.677Z,26.69
2023-02-02T08:35:13.639Z,58.40
2023-02-02T08:36:13.717Z,79.95
2023-02-02T08:37:13.747Z,113.08
2023-02-02T08:38:13.641Z,70.60
2023-02-02T08:39:13.649Z,64.71
2023-02-02T08:40:13.798Z,114.35
2023-02-02T08:41:13.758Z,156.36
2023-02-02T08:42:13.841Z,103.77
2023-02-02T08:43:13.880Z,62.50
2023-02-02T08:44:13.906Z,102.40
2023-02-02T08:46:14.486Z,68.25
2023-02-02T08:47:13.816Z,84.15
2023-02-02T08:48:13.726Z,131.86
2023-02-02T08:49:13.850Z,141.36
2023-02-02T08:50:14.337Z,4.99
2023-02-02T08:51:13.867Z,0.00
2023-02-02T08:52:13.742Z,0.00
2023-02-02T08:53:13.844Z,19.65
2023-02-02T08:54:13.838Z,66.87
2023-02-02T08:55:14.194Z,75.30
2023-02-02T08:56:14.407Z,118.28
2023-02-02T08:57:14.037Z,103.52
2023-02-02T08:58:13.921Z,149.08
2023-02-02T08:59:13.773Z,218.23
2023-02-02T09:00:14.504Z,250.00
2023-02-02T09:01:14.340Z,247.89
2023-02-02T09:02:14.029Z,212.05
2023-02-02T09:03:14.010Z,181.46
2023-02-02T09:04:14.041Z,213.19
2023-02-02T09:05:13.732Z,165.62
2023-02-02T09:06:13.812Z,223.90
2023-02-02T09:12:13.667Z,250.00
2023-02-02T09:13:13.773Z,250.88
2023-02-02T09:14:13.856Z,253.34
2023-02-02T09:15:13.659Z,258.43
2023-02-02T09:16:13.738Z,243.39
2023-02-02T09:17:13.879Z,240.11
2023-02-02T09:18:13.673Z,245.69
2023-02-02T09:19:13.600Z,250.25
2023-02-02T09:20:13.819Z,253.51
2023-02-02T09:21:13.706Z,245.63
2023-02-02T09:22:13.932Z,233.11
2023-02-02T09:23:13.551Z,223.17
2023-02-02T09:24:13.549Z,179.96
2023-02-02T09:26:34.391Z,25.00
2023-02-02T09:27:33.957Z,25.00
2023-02-02T09:28:34.041Z,25.00
2023-02-02T09:29:33.953Z,25.00
2023-02-02T09:30:35.074Z,25.00
2023-02-02T09:31:34.162Z,39.41
2023-02-02T09:35:14.356Z,25.00
2023-02-02T09:36:14.403Z,25.00
2023-02-02T09:37:14.665Z,25.00
2023-02-02T09:38:15.081Z,25.00
2023-02-02T09:39:13.858Z,25.00
2023-02-02T09:40:14.300Z,39.14
2023-02-02T09:41:13.933Z,35.68
2023-02-02T09:42:13.879Z,30.69
2023-02-02T09:43:13.876Z,23.49
2023-02-02T09:44:13.875Z,13.11
2023-02-02T09:45:13.809Z,23.75
2023-02-02T09:46:13.935Z,30.69
2023-02-02T09:47:13.797Z,16.11
2023-02-02T09:48:13.728Z,36.79
2023-02-02T09:49:13.831Z,27.67
2023-02-02T09:50:13.814Z,40.84
2023-02-02T09:51:13.701Z,36.65
2023-02-02T09:52:13.739Z,0.00
2023-02-02T09:53:13.765Z,38.94
2023-02-02T09:54:13.952Z,5.20
2023-02-02T09:55:15.325Z,78.35
2023-02-02T09:56:14.999Z,62.36
2023-02-02T09:57:14.376Z,92.71
2023-02-02T09:58:15.324Z,196.73
2023-02-02T09:59:20.319Z,183.46
2023-02-02T10:00:15.313Z,184.90
2023-02-02T10:01:14.288Z,189.39
2023-02-02T10:02:14.589Z,165.41
2023-02-02T10:03:15.039Z,207.07
2023-02-02T10:04:15.577Z,254.69
2023-02-02T10:05:16.285Z,266.09
2023-02-02T10:06:14.547Z,258.70
2023-02-02T10:07:14.223Z,260.03
2023-02-02T10:22:34.056Z,116.25
2023-02-02T10:23:33.694Z,96.11
2023-02-02T10:30:33.787Z,103.81
2023-02-02T10:31:33.689Z,132.85
2023-02-02T10:37:53.886Z,25.00
2023-02-02T10:38:54.957Z,25.00
2023-02-02T10:39:54.142Z,25.00
2023-02-02T10:40:53.450Z,25.00
2023-02-02T10:41:53.778Z,25.00
2023-02-02T10:44:18.115Z,25.00
2023-02-02T10:49:56.178Z,25.00
2023-02-02T10:52:13.230Z,25.00
2023-02-02T10:55:52.458Z,25.00
2023-02-02T10:56:52.811Z,25.00
2023-02-02T10:57:52.299Z,25.00
2023-02-02T10:58:52.496Z,25.00
2023-02-02T10:59:52.386Z,25.00
2023-02-02T11:00:52.243Z,18.57
2023-02-02T11:01:53.011Z,23.77
2023-02-02T11:02:52.241Z,46.06
2023-02-02T11:03:52.172Z,59.49
2023-02-02T11:04:52.153Z,61.72
2023-02-02T11:05:52.236Z,61.20
2023-02-02T11:06:52.443Z,70.10
2023-02-02T11:07:52.169Z,92.62
2023-02-02T11:08:52.127Z,85.16
2023-02-02T11:09:52.138Z,34.86
2023-02-02T11:10:52.149Z,12.14
2023-02-02T11:13:12.373Z,25.00
2023-02-02T11:14:11.937Z,25.00
2023-02-02T11:15:12.328Z,25.00
2023-02-02T11:16:12.421Z,25.00
2023-02-02T11:17:12.077Z,25.00
2023-02-02T11:18:11.999Z,41.87
2023-02-02T12:12:53.411Z,49.49
2023-02-02T12:13:53.438Z,23.69
2023-02-02T12:14:53.623Z,0.00
2023-02-02T12:17:13.433Z,25.00
2023-02-02T12:18:13.783Z,25.00
2023-02-02T12:19:13.269Z,25.00
2023-02-02T12:20:13.377Z,25.00
2023-02-02T12:21:13.504Z,25.00
2023-02-02T12:22:13.430Z,0.00
2023-02-02T12:23:13.176Z,0.00
2023-02-02T12:25:35.001Z,25.00
2023-02-02T13:28:12.370Z,25.00
2023-02-02T13:29:01.991Z,25.00
2023-02-02T13:30:00.829Z,25.00
2023-02-02T13:31:01.381Z,25.00
2023-02-02T13:32:00.521Z,25.00
2023-02-02T13:33:00.538Z,25.00
2023-02-02T13:34:00.538Z,25.00
2023-02-02T13:36:00.519Z,0.00
2023-02-02T13:37:00.488Z,0.00
2023-02-02T13:38:01.151Z,7.22
2023-02-02T13:39:00.494Z,22.16
2023-02-02T13:40:00.494Z,35.03
2023-02-02T13:41:00.485Z,171.93
2023-02-02T13:42:00.491Z,61.67
2023-02-02T13:43:00.460Z,0.00
2023-02-02T13:55:00.458Z,25.00
2023-02-02T13:56:00.201Z,25.00
2023-02-02T13:56:59.910Z,25.00
2023-02-02T13:58:00.033Z,25.00
2023-02-02T13:59:00.045Z,25.00
2023-02-02T14:00:00.017Z,24.02
2023-02-02T14:00:59.943Z,31.93
2023-02-02T14:01:59.877Z,94.75
2023-02-02T14:02:59.932Z,55.94
2023-02-02T14:03:59.893Z,117.25
2023-02-02T14:04:59.858Z,151.82
2023-02-02T14:05:59.859Z,183.96
2023-02-02T14:06:59.914Z,158.83
2023-02-02T14:07:59.860Z,197.17
2023-02-02T14:08:59.886Z,172.91
2023-02-02T14:09:59.836Z,98.91
2023-02-02T14:10:59.843Z,97.43
2023-02-02T14:11:59.921Z,41.06
2023-02-02T14:13:02.318Z,25.25
2023-02-02T14:15:20.115Z,25.00
2023-02-02T14:16:20.099Z,25.00
2023-02-02T14:17:20.129Z,25.00
2023-02-02T14:18:20.423Z,25.00
2023-02-02T14:19:19.905Z,25.00
2023-02-02T14:20:20.082Z,69.48
2023-02-02T14:21:19.936Z,60.00
2023-02-02T14:22:19.966Z,118.96
2023-02-02T14:23:19.899Z,0.00
2023-02-02T14:24:20.012Z,0.00
2023-02-02T14:25:20.880Z,0.00
2023-02-02T14:26:19.984Z,0.00
2023-02-02T14:27:19.916Z,0.00
2023-02-02T14:28:19.958Z,0.00
2023-02-02T14:29:19.910Z,43.12
2023-02-02T14:30:19.875Z,110.93
2023-02-02T14:31:20.091Z,119.93
2023-02-02T14:32:19.970Z,51.32
2023-02-02T14:33:21.244Z,9.14
2023-02-02T14:34:19.808Z,26.16
2023-02-02T14:35:19.800Z,79.91
2023-02-02T14:36:19.823Z,46.51
2023-02-02T14:37:19.815Z,59.72
2023-02-02T14:38:19.797Z,62.14
2023-02-02T14:42:55.482Z,25.00
2023-02-02T14:45:59.790Z,25.00
2023-02-02T14:46:59.815Z,25.00
2023-02-02T14:48:00.807Z,25.00
2023-02-02T14:49:00.175Z,25.00
2023-02-02T14:50:00.127Z,25.00
2023-02-02T14:51:00.272Z,24.45
2023-02-02T14:51:59.917Z,112.01
2023-02-02T14:53:00.095Z,57.20
2023-02-02T14:54:01.257Z,20.39
2023-02-02T14:54:59.723Z,0.00
2023-02-02T14:55:59.759Z,0.00
2023-02-02T14:56:59.689Z,29.31
2023-02-02T14:57:59.721Z,42.24
2023-02-02T14:58:59.743Z,60.05
2023-02-02T15:00:01.448Z,28.59
2023-02-02T15:00:59.696Z,17.86
2023-02-02T15:01:59.736Z,38.00
2023-02-02T15:02:59.809Z,87.58
2023-02-02T15:03:59.704Z,80.38
2023-02-02T15:05:00.087Z,113.05
2023-02-02T15:06:00.258Z,235.68
2023-02-02T15:06:59.760Z,203.77
2023-02-02T15:07:59.825Z,201.32
2023-02-02T15:08:59.851Z,290.03
2023-02-02T15:10:00.003Z,207.80
2023-02-02T15:11:00.062Z,266.71
2023-02-02T15:12:01.423Z,231.74
2023-02-02T15:13:00.027Z,248.67
2023-02-02T15:14:00.089Z,231.45
2023-02-02T15:15:00.159Z,201.60
2023-02-02T15:16:01.207Z,131.30
2023-02-02T15:17:00.393Z,68.90
2023-02-02T15:18:01.116Z,115.47
2023-02-02T15:19:00.433Z,161.40
2023-02-02T15:20:01.354Z,258.99
2023-02-02T15:21:00.450Z,224.36
2023-02-02T15:22:00.580Z,186.52
2023-02-02T15:23:00.550Z,206.26
2023-02-02T15:24:00.643Z,143.85
2023-02-02T15:25:00.603Z,158.77
2023-02-02T15:26:00.658Z,185.04
2023-02-02T15:27:00.713Z,230.73
2023-02-02T15:28:00.795Z,87.12
2023-02-02T15:29:00.799Z,101.58
2023-02-02T15:31:21.327Z,25.00
2023-02-02T15:32:21.476Z,25.00
2023-02-02T15:33:21.126Z,25.00
2023-02-02T15:34:21.188Z,25.00
2023-02-02T15:35:21.153Z,25.00
2023-02-02T16:42:03.048Z,25.00
2023-02-02T16:43:03.266Z,25.00
2023-02-02T16:44:03.607Z,25.00
2023-02-02T16:45:03.025Z,25.00
2023-02-02T16:46:19.245Z,25.00
2023-02-02T16:47:03.176Z,25.00
2023-02-02T16:48:03.949Z,25.00
2023-02-02T16:49:03.002Z,25.00
2023-02-02T16:51:23.645Z,25.00
2023-02-02T16:55:05.106Z,25.00
2023-02-02T16:56:04.635Z,25.00
2023-02-02T16:57:05.195Z,25.00
2023-02-02T16:59:22.311Z,25.00
2023-02-02T17:00:22.574Z,25.00
2023-02-02T17:01:22.383Z,25.00
2023-02-02T17:02:22.826Z,25.00
2023-02-02T17:03:22.337Z,25.00
2023-02-02T17:04:22.241Z,0.00
2023-02-02T17:05:22.248Z,0.00
2023-02-02T17:06:22.245Z,167.43
2023-02-02T17:07:22.649Z,335.58
2023-02-02T17:08:22.229Z,269.02
2023-02-02T17:09:22.237Z,344.72
2023-02-02T17:10:22.193Z,331.84
2023-02-02T17:11:22.190Z,202.21
2023-02-02T17:12:33.356Z,189.00
2023-02-02T17:13:23.429Z,191.08
2023-02-02T17:14:22.187Z,205.63
2023-02-02T17:15:22.202Z,227.09
2023-02-02T17:16:22.167Z,272.83
2023-02-02T17:17:22.138Z,266.34
2023-02-02T17:18:22.131Z,218.57
2023-02-02T17:23:01.660Z,25.00
2023-02-02T17:24:01.433Z,25.00
2023-02-02T17:25:01.495Z,25.00
2023-02-02T17:26:01.553Z,25.00
2023-02-02T17:27:01.437Z,25.00
2023-02-02T17:28:01.446Z,0.00
2023-02-02T17:29:01.440Z,34.59
2023-02-02T17:30:01.573Z,42.16
2023-02-02T17:31:01.685Z,85.25
2023-02-02T17:32:02.081Z,107.62
2023-02-02T17:33:01.666Z,240.31
2023-02-02T17:34:01.437Z,317.52
2023-02-02T17:35:01.473Z,310.47
2023-02-02T17:36:01.483Z,325.49
2023-02-02T17:37:01.531Z,209.46
2023-02-02T17:38:01.432Z,167.17
2023-02-02T17:39:01.397Z,254.61
2023-02-02T17:40:01.381Z,244.66
2023-02-02T17:41:01.862Z,147.79
2023-02-02T17:42:01.543Z,138.93
2023-02-02T17:43:01.532Z,97.22
2023-02-02T17:44:02.271Z,174.09
2023-02-02T17:45:01.643Z,125.50
2023-02-02T17:46:01.632Z,69.36
2023-02-02T17:47:01.650Z,31.42
2023-02-02T17:48:01.650Z,47.38
2023-02-02T17:49:01.781Z,13.22
2023-02-02T17:50:01.782Z,76.18
2023-02-02T17:51:02.091Z,77.34
2023-02-02T17:52:01.927Z,95.36
2023-02-02T17:53:01.933Z,78.41
2023-02-02T17:54:01.971Z,35.37
2023-02-02T17:56:22.333Z,25.00
2023-02-02T18:01:06.477Z,25.00
2023-02-02T18:02:06.399Z,25.00
2023-02-02T18:03:06.556Z,25.00
2023-02-02T18:04:06.346Z,25.00
2023-02-02T18:05:06.195Z,25.00
2023-02-02T18:06:06.395Z,25.00
2023-02-02T18:07:06.105Z,94.02
2023-02-02T18:08:06.206Z,49.15
2023-02-02T18:09:06.119Z,84.70
2023-02-02T18:10:06.134Z,104.27
2023-02-02T18:11:06.132Z,131.46
2023-02-02T18:12:06.253Z,203.94
2023-02-02T18:13:06.174Z,198.94
2023-02-02T18:14:06.151Z,156.97
2023-02-02T18:15:07.075Z,177.68
2023-02-02T18:16:06.159Z,159.34
2023-02-02T18:17:06.074Z,176.85
2023-02-02T18:18:06.103Z,214.10
2023-02-02T18:19:06.061Z,191.34
2023-02-02T18:20:06.263Z,175.34
2023-02-02T18:21:06.163Z,197.98
2023-02-02T18:22:06.320Z,219.20
2023-02-02T18:23:06.406Z,277.91
2023-02-02T18:24:06.152Z,248.55
2023-02-02T18:25:06.208Z,271.67
2023-02-02T18:26:06.154Z,293.00
2023-02-02T18:27:06.221Z,260.18
2023-02-02T18:28:06.272Z,272.66
2023-02-02T18:29:06.346Z,291.38
2023-02-02T18:30:06.363Z,278.00
2023-02-02T18:31:06.495Z,264.56
2023-02-02T18:32:06.535Z,222.03
2023-02-02T18:33:06.561Z,144.81
2023-02-02T18:35:33.617Z,25.00
2023-02-02T18:36:33.345Z,25.00
2023-02-02T18:38:52.520Z,25.00
2023-02-02T18:39:53.530Z,25.00
2023-02-02T18:40:53.302Z,25.00
2023-02-02T18:41:52.382Z,25.00
2023-02-02T18:42:52.321Z,25.00
2023-02-02T18:43:52.355Z,38.44
2023-02-02T18:44:52.359Z,71.79
2023-02-02T18:45:52.428Z,88.23
2023-02-02T18:46:52.335Z,48.71
2023-02-02T18:49:13.037Z,25.00
2023-02-02T18:50:12.533Z,25.00
2023-02-02T18:51:12.485Z,25.00
2023-02-02T18:52:12.666Z,25.00
2023-02-02T18:53:12.512Z,25.00
2023-02-02T18:54:12.460Z,27.63
2023-02-02T18:55:12.516Z,79.19
2023-02-02T18:56:13.533Z,103.65
2023-02-02T18:57:13.313Z,128.83
2023-02-02T18:58:12.487Z,157.64
2023-02-02T18:59:12.406Z,232.86
2023-02-02T19:00:12.381Z,269.00
2023-02-02T19:01:12.410Z,234.13
2023-02-02T19:02:12.401Z,189.83
2023-02-02T19:03:12.476Z,155.98
2023-02-02T19:04:12.603Z,117.59
2023-02-02T19:05:12.442Z,95.38
2023-02-02T19:06:12.354Z,89.48
2023-02-02T19:07:12.359Z,110.81
2023-02-02T19:08:12.449Z,39.19
2023-02-02T19:09:12.353Z,32.69
2023-02-02T19:10:12.363Z,42.65
2023-02-02T19:11:12.349Z,25.00
2023-02-02T19:12:12.328Z,37.05
2023-02-02T19:13:12.354Z,68.95
2023-02-02T19:14:12.294Z,52.98
2023-02-02T19:15:12.294Z,23.73
2023-02-02T19:16:12.346Z,45.32
2023-02-02T19:17:12.312Z,63.61
2023-02-02T19:18:12.307Z,72.02
2023-02-02T19:19:12.446Z,54.00
2023-02-02T19:20:12.328Z,95.95
2023-02-02T19:21:12.253Z,107.07
2023-02-02T19:22:12.220Z,70.85
2023-02-02T19:23:12.263Z,15.48
2023-02-02T19:24:12.247Z,101.97
2023-02-02T19:25:12.209Z,121.82
2023-02-02T19:26:12.383Z,91.32
2023-02-02T19:27:12.262Z,38.19
2023-02-02T19:28:12.264Z,21.00
2023-02-02T19:29:12.183Z,37.82
2023-02-02T19:30:12.201Z,28.35
2023-02-02T19:31:12.436Z,85.24
2023-02-02T19:32:12.194Z,91.30
2023-02-02T19:33:12.208Z,97.68
2023-02-02T19:34:12.178Z,76.43
2023-02-02T19:35:12.168Z,56.00
2023-02-02T19:36:12.152Z,56.57
2023-02-02T19:37:12.223Z,91.94
2023-02-02T19:38:12.162Z,109.24
2023-02-02T19:39:12.134Z,155.20
2023-02-02T19:40:12.179Z,178.61
2023-02-02T19:41:13.099Z,193.69
2023-02-02T19:42:12.130Z,189.22
2023-02-02T19:43:12.099Z,196.27
2023-02-02T19:44:12.061Z,174.38
2023-02-02T19:45:12.095Z,185.07
2023-02-02T19:46:12.113Z,176.88
2023-02-02T19:47:12.123Z,150.13
2023-02-02T19:48:12.081Z,169.01
2023-02-02T19:49:12.098Z,162.29
2023-02-02T19:50:12.109Z,125.63
2023-02-02T19:51:12.221Z,156.04
2023-02-02T19:52:12.317Z,172.01
2023-02-02T19:53:12.257Z,148.63
2023-02-02T19:54:12.263Z,129.78
2023-02-02T19:55:12.365Z,125.76
2023-02-02T19:56:13.943Z,116.46
2023-02-02T19:57:12.360Z,122.46
2023-02-02T19:58:12.377Z,138.00
2023-02-02T19:59:12.396Z,160.21
2023-02-02T20:00:12.404Z,163.03
2023-02-02T20:01:12.528Z,164.48
2023-02-02T20:02:12.472Z,139.57
2023-02-02T20:03:12.681Z,154.86
2023-02-02T20:04:12.585Z,139.78
2023-02-02T20:06:33.337Z,25.00
2023-02-02T20:09:32.386Z,25.00
2023-02-02T20:10:32.854Z,25.00
2023-02-02T20:11:31.367Z,25.00
2023-02-02T20:12:31.508Z,25.00
2023-02-02T20:13:31.360Z,25.00
2023-02-02T20:14:31.306Z,25.00
2023-02-02T20:15:31.504Z,56.30
2023-02-02T20:16:31.380Z,46.51
2023-02-02T20:17:31.310Z,64.78
2023-02-02T20:18:31.349Z,25.00
2023-02-02T20:19:31.345Z,27.51
2023-02-02T20:20:31.341Z,9.68
2023-02-02T20:21:31.345Z,9.32
2023-02-02T20:22:31.305Z,61.86
2023-02-02T20:23:31.299Z,96.01
2023-02-02T20:24:31.440Z,117.63
2023-02-02T20:25:31.425Z,131.78
2023-02-02T20:26:31.507Z,159.72
2023-02-02T20:27:31.580Z,129.08
2023-02-02T20:28:31.629Z,119.79
2023-02-02T20:29:31.720Z,104.25
2023-02-02T20:30:31.711Z,107.84
2023-02-02T20:31:31.821Z,84.63
2023-02-02T20:32:31.884Z,29.66
2023-02-02T20:33:31.878Z,38.06
2023-02-02T20:34:53.890Z,25.00
2023-02-02T20:35:53.578Z,25.00
2023-02-02T20:36:53.607Z,25.00
2023-02-02T20:37:53.503Z,25.00
2023-02-02T20:38:53.530Z,25.00
2023-02-02T20:39:53.625Z,32.52
2023-02-02T20:40:53.533Z,45.09
2023-02-02T20:41:53.500Z,31.04
2023-02-02T20:42:53.637Z,27.40
2023-02-02T20:43:53.535Z,42.23
2023-02-02T20:44:53.438Z,37.28
2023-02-02T20:45:53.616Z,0.00
2023-02-02T20:46:53.550Z,0.00
2023-02-02T20:47:53.572Z,18.75
2023-02-02T20:48:53.500Z,36.34
2023-02-02T20:49:53.592Z,81.33
2023-02-02T20:50:53.718Z,116.95
2023-02-02T20:51:53.553Z,94.12
2023-02-02T20:52:53.408Z,111.74
2023-02-02T20:53:53.498Z,124.22
2023-02-02T20:54:53.365Z,137.90
2023-02-02T20:55:53.409Z,111.70
2023-02-02T20:56:53.407Z,149.23
2023-02-02T20:57:53.438Z,211.64
2023-02-02T20:58:53.645Z,88.45
2023-02-02T20:59:53.358Z,78.06
2023-02-02T21:00:53.422Z,115.09
2023-02-02T21:01:53.595Z,147.46
2023-02-02T21:02:53.345Z,158.50
2023-02-02T21:03:53.553Z,130.55
2023-02-02T21:04:53.352Z,102.62
2023-02-02T21:07:53.316Z,139.95
2023-02-02T21:09:53.382Z,98.88
2023-02-02T21:10:53.373Z,117.85
2023-02-02T21:11:53.332Z,105.22
2023-02-02T21:12:53.562Z,42.19
2023-02-02T21:13:53.536Z,48.41
2023-02-02T21:14:53.560Z,35.91
2023-02-02T21:15:53.603Z,55.86
2023-02-02T21:17:02.401Z,101.55
2023-02-02T21:18:53.669Z,68.79
2023-02-02T21:19:53.654Z,67.57
2023-02-02T21:20:53.716Z,100.12
2023-02-02T21:21:53.683Z,51.25
2023-02-02T21:22:53.617Z,85.96
2023-02-02T21:23:53.595Z,124.23
2023-02-02T21:24:53.810Z,146.06
2023-02-02T21:25:53.625Z,150.75
2023-02-02T21:26:53.797Z,147.83
2023-02-02T21:27:53.767Z,110.61
2023-02-02T21:28:53.846Z,154.66
2023-02-02T21:29:53.858Z,147.63
2023-02-02T21:30:54.045Z,105.94
2023-02-02T21:31:54.127Z,117.52
2023-02-02T21:32:54.030Z,104.89
2023-02-02T21:33:54.109Z,77.88
2023-02-02T21:34:54.172Z,79.27
2023-02-02T21:35:54.218Z,68.97
2023-02-02T21:36:56.263Z,76.50
2023-02-02T21:37:56.296Z,137.12
2023-02-02T21:40:14.838Z,25.00